createdAt,value
2019-05-11T00:00:44.586Z,8.99
2019-05-11T00:03:11.597Z,8.95
2019-05-11T00:05:39.007Z,8.91
2019-05-11T00:08:06.048Z,8.91
2019-05-11T00:10:33.150Z,8.87
2019-05-11T00:13:00.305Z,8.94
2019-05-11T00:15:27.886Z,8.93
2019-05-11T00:17:54.874Z,8.87
2019-05-11T00:20:22.930Z,8.97
2019-05-11T00:22:49.969Z,8.94
2019-05-11T00:25:17.570Z,9.03
2019-05-11T00:27:44.637Z,8.91
2019-05-11T00:30:13.428Z,8.98
2019-05-11T00:32:40.476Z,8.99
2019-05-11T00:35:08.594Z,8.97
2019-05-11T00:37:35.666Z,8.94
2019-05-11T00:40:14.085Z,8.95
2019-05-11T00:42:32.056Z,9.02
2019-05-11T00:44:59.811Z,9.02
2019-05-11T00:47:26.838Z,9.06
2019-05-11T00:49:53.830Z,9.05
2019-05-11T00:52:21.042Z,9.10
2019-05-11T00:54:48.776Z,9.04
2019-05-11T00:57:18.501Z,9.03
2019-05-11T00:59:45.502Z,9.05
2019-05-11T01:02:12.511Z,8.95
2019-05-11T01:04:39.871Z,9.07
2019-05-11T01:07:06.899Z,9.07
2019-05-11T01:09:34.396Z,9.06
2019-05-11T01:12:01.518Z,8.99
2019-05-11T01:14:28.906Z,9.01
2019-05-11T01:16:55.924Z,9.06
2019-05-11T01:19:22.942Z,9.20
2019-05-11T01:21:50.537Z,9.14
2019-05-11T01:24:19.058Z,9.14
2019-05-11T01:26:46.106Z,9.21
2019-05-11T01:29:13.361Z,9.05
2019-05-11T01:31:40.394Z,9.20
2019-05-11T01:34:08.031Z,9.14
2019-05-11T01:36:35.075Z,9.15
2019-05-11T01:39:02.212Z,9.18
2019-05-11T01:41:29.270Z,9.19
2019-05-11T01:43:57.715Z,9.50
2019-05-11T01:46:24.717Z,9.24
2019-05-11T01:48:51.842Z,9.41
2019-05-11T01:51:19.518Z,9.33
2019-05-11T01:53:48.100Z,9.21
2019-05-11T01:56:15.350Z,9.19
2019-05-11T01:58:42.352Z,9.28
2019-05-11T02:01:09.347Z,9.62
2019-05-11T02:03:36.770Z,9.87
2019-05-11T02:06:04.002Z,9.44
2019-05-11T02:08:31.019Z,9.32
2019-05-11T02:11:13.807Z,9.31
2019-05-11T02:13:26.979Z,9.34
2019-05-11T02:15:54.091Z,9.37
2019-05-11T02:18:21.131Z,9.63
2019-05-11T02:20:48.559Z,9.91
2019-05-11T02:23:15.827Z,10.08
2019-05-11T02:25:42.831Z,10.10
2019-05-11T02:28:09.939Z,10.08
2019-05-11T02:30:36.984Z,9.89
2019-05-11T02:33:03.983Z,9.78
2019-05-11T02:35:31.197Z,9.78
2019-05-11T02:37:58.539Z,9.55
2019-05-11T02:40:25.795Z,9.45
2019-05-11T02:42:52.787Z,9.46
2019-05-11T02:45:37.729Z,9.55
2019-05-11T02:48:04.751Z,9.66
2019-05-11T02:50:32.881Z,9.46
2019-05-11T02:53:01.088Z,9.41
2019-05-11T02:55:28.763Z,9.40
2019-05-11T02:57:55.773Z,9.29
2019-05-11T03:00:34.274Z,9.51
2019-05-11T03:03:01.275Z,9.47
2019-05-11T03:05:28.263Z,9.53
2019-05-11T03:07:55.267Z,9.29
2019-05-11T03:10:22.607Z,9.23
2019-05-11T03:12:49.588Z,9.02
2019-05-11T03:15:16.970Z,9.18
2019-05-11T03:17:43.980Z,9.29
2019-05-11T03:20:11.583Z,9.36
2019-05-11T03:22:38.558Z,9.41
2019-05-11T03:25:07.049Z,9.71
2019-05-11T03:27:34.130Z,9.76
2019-05-11T03:30:02.232Z,9.60
2019-05-11T03:32:29.511Z,9.65
2019-05-11T03:34:56.501Z,9.73
2019-05-11T03:37:26.921Z,9.82
2019-05-11T03:39:54.176Z,9.81
2019-05-11T03:42:21.416Z,9.80
2019-05-11T03:44:48.466Z,9.71
2019-05-11T03:47:15.833Z,9.57
2019-05-11T03:49:42.845Z,9.70
2019-05-11T03:52:09.854Z,9.71
2019-05-11T03:54:36.835Z,9.81
2019-05-11T03:57:05.186Z,9.97
2019-05-11T03:59:32.302Z,9.88
2019-05-11T04:01:59.406Z,9.81
2019-05-11T04:04:26.442Z,9.86
2019-05-11T04:06:53.843Z,9.91
2019-05-11T04:09:20.823Z,9.94
2019-05-11T04:11:48.242Z,9.95
2019-05-11T04:14:16.557Z,9.92
2019-05-11T04:16:44.063Z,10.00
2019-05-11T04:19:11.142Z,9.95
2019-05-11T04:21:38.197Z,10.09
2019-05-11T04:24:05.211Z,10.00
2019-05-11T04:26:32.878Z,10.02
2019-05-11T04:28:59.904Z,9.76
2019-05-11T04:31:26.935Z,9.84
2019-05-11T04:33:54.398Z,9.82
2019-05-11T04:36:21.496Z,9.92
2019-05-11T04:38:48.961Z,9.68
2019-05-11T04:41:16.073Z,9.73
2019-05-11T04:43:43.446Z,9.77
2019-05-11T04:46:10.620Z,9.68
2019-05-11T04:48:37.629Z,9.75
2019-05-11T04:51:04.700Z,9.66
2019-05-11T04:53:31.984Z,9.29
2019-05-11T04:55:59.058Z,9.48
2019-05-11T04:58:27.188Z,9.52
2019-05-11T05:00:54.208Z,9.60
2019-05-11T05:03:21.632Z,9.86
2019-05-11T05:05:49.250Z,10.08
2019-05-11T05:08:16.259Z,10.07
2019-05-11T05:10:43.339Z,10.14
2019-05-11T05:13:11.097Z,10.07
2019-05-11T05:15:38.352Z,10.11
2019-05-11T05:18:05.620Z,10.06
2019-05-11T05:20:32.653Z,10.06
2019-05-11T05:22:59.960Z,10.06
2019-05-11T05:25:27.209Z,9.86
2019-05-11T05:27:55.036Z,9.85
2019-05-11T05:30:22.189Z,9.94
2019-05-11T05:32:49.345Z,9.91
2019-05-11T05:35:16.361Z,9.81
2019-05-11T05:37:43.324Z,9.88
2019-05-11T05:40:10.460Z,10.06
2019-05-11T05:42:37.476Z,9.63
2019-05-11T05:45:05.606Z,9.88
2019-05-11T05:47:32.640Z,10.28
2019-05-11T05:49:59.672Z,10.02
2019-05-11T05:52:27.137Z,9.99
2019-05-11T05:54:54.757Z,10.03
2019-05-11T05:57:21.952Z,10.22
2019-05-11T05:59:49.003Z,10.15
2019-05-11T06:02:16.148Z,10.32
2019-05-11T06:04:43.189Z,10.20
2019-05-11T06:07:10.245Z,10.20
2019-05-11T06:09:37.245Z,10.00
2019-05-11T06:12:04.640Z,9.97
2019-05-11T06:14:31.696Z,10.25
2019-05-11T06:16:59.057Z,10.18
2019-05-11T06:19:26.094Z,10.32
2019-05-11T06:21:53.409Z,10.45
2019-05-11T06:24:20.490Z,10.49
2019-05-11T06:26:49.557Z,10.80
2019-05-11T06:29:21.280Z,10.55
2019-05-11T06:31:46.657Z,10.40
2019-05-11T06:34:14.109Z,10.42
2019-05-11T06:36:41.153Z,10.56
2019-05-11T06:39:08.332Z,10.58
2019-05-11T06:41:36.028Z,10.55
2019-05-11T06:44:03.589Z,10.73
2019-05-11T06:46:30.679Z,10.83
2019-05-11T06:48:58.209Z,10.81
2019-05-11T06:51:25.285Z,10.20
2019-05-11T06:53:52.434Z,10.68
2019-05-11T06:56:19.793Z,11.07
2019-05-11T06:58:49.327Z,11.00
2019-05-11T07:01:16.356Z,11.53
2019-05-11T07:03:43.393Z,11.80
2019-05-11T07:06:10.442Z,11.55
2019-05-11T07:08:37.866Z,11.51
2019-05-11T07:11:06.094Z,11.64
2019-05-11T07:13:33.168Z,11.87
2019-05-11T07:16:00.169Z,11.75
2019-05-11T07:18:27.228Z,12.23
2019-05-11T07:20:54.254Z,11.88
2019-05-11T07:23:21.310Z,11.80
2019-05-11T07:25:49.722Z,11.77
2019-05-11T07:28:17.466Z,11.39
2019-05-11T07:30:44.809Z,11.83
2019-05-11T07:33:14.100Z,11.54
2019-05-11T07:35:41.082Z,11.52
2019-05-11T07:38:08.418Z,11.79
2019-05-11T07:40:38.521Z,11.91
2019-05-11T07:43:09.494Z,12.13
2019-05-11T07:45:35.180Z,12.07
2019-05-11T07:48:02.537Z,12.04
2019-05-11T07:50:29.619Z,12.32
2019-05-11T07:52:58.931Z,11.89
2019-05-11T07:55:28.194Z,12.19
2019-05-11T07:57:54.930Z,12.79
2019-05-11T08:00:21.974Z,13.05
2019-05-11T08:02:49.018Z,12.80
2019-05-11T08:05:18.002Z,12.63
2019-05-11T08:07:47.950Z,13.41
2019-05-11T08:10:14.754Z,13.02
2019-05-11T08:12:41.993Z,12.37
2019-05-11T08:15:13.282Z,12.69
2019-05-11T08:17:39.978Z,12.82
2019-05-11T08:20:08.450Z,13.06
2019-05-11T08:22:37.757Z,12.86
2019-05-11T08:25:05.150Z,12.50
2019-05-11T08:27:32.588Z,12.14
2019-05-11T08:29:59.651Z,12.72
2019-05-11T08:32:28.710Z,12.89
2019-05-11T08:34:58.491Z,13.10
2019-05-11T08:37:25.606Z,12.92
2019-05-11T08:39:52.864Z,13.16
2019-05-11T08:42:21.358Z,13.17
2019-05-11T08:44:48.851Z,13.34
2019-05-11T08:47:17.772Z,12.90
2019-05-11T08:49:44.861Z,13.18
2019-05-11T08:52:11.886Z,13.06
2019-05-11T08:54:38.988Z,12.95
2019-05-11T08:57:08.178Z,12.97
2019-05-11T08:59:39.209Z,13.23
2019-05-11T09:02:08.319Z,12.86
2019-05-11T09:04:39.406Z,13.18
2019-05-11T09:07:04.674Z,12.91
2019-05-11T09:09:31.747Z,12.92
2019-05-11T09:11:59.071Z,12.69
2019-05-11T09:14:28.417Z,12.66
2019-05-11T09:16:57.596Z,12.67
2019-05-11T09:19:24.743Z,12.73
2019-05-11T09:21:52.316Z,13.03
2019-05-11T09:24:19.347Z,12.97
2019-05-11T09:26:47.947Z,12.80
2019-05-11T09:29:15.215Z,12.52
2019-05-11T09:31:43.575Z,12.38
2019-05-11T09:34:10.684Z,12.45
2019-05-11T09:36:38.948Z,12.78
2019-05-11T09:39:08.436Z,12.59
2019-05-11T09:41:38.324Z,12.77
2019-05-11T09:44:09.019Z,12.65
2019-05-11T09:46:38.436Z,12.98
2019-05-11T09:49:07.836Z,12.67
2019-05-11T09:51:34.531Z,12.89
2019-05-11T09:54:01.588Z,12.56
2019-05-11T09:56:29.121Z,12.59
2019-05-11T09:58:58.890Z,12.81
2019-05-11T10:01:26.254Z,12.93
2019-05-11T10:03:53.306Z,13.23
2019-05-11T10:06:20.403Z,12.79
2019-05-11T10:08:48.778Z,12.89
2019-05-11T10:11:19.055Z,12.92
2019-05-11T10:13:47.771Z,12.69
2019-05-11T10:16:17.609Z,12.60
2019-05-11T10:18:48.880Z,12.11
2019-05-11T10:21:15.550Z,12.23
2019-05-11T10:23:42.739Z,12.20
2019-05-11T10:26:09.976Z,12.29
2019-05-11T10:28:38.938Z,12.23
2019-05-11T10:31:08.587Z,12.21
2019-05-11T10:33:38.083Z,12.78
2019-05-11T10:36:08.408Z,12.53
2019-05-11T10:38:37.784Z,12.19
2019-05-11T10:41:04.868Z,12.16
2019-05-11T10:43:32.076Z,11.98
2019-05-11T10:45:59.561Z,12.14
2019-05-11T10:48:28.218Z,12.21
2019-05-11T10:50:57.132Z,12.45
2019-05-11T10:53:24.279Z,12.05
2019-05-11T10:55:51.275Z,12.12
2019-05-11T10:58:18.673Z,12.06
2019-05-11T11:00:48.042Z,12.17
2019-05-11T11:03:15.141Z,12.30
2019-05-11T11:05:42.117Z,12.41
2019-05-11T11:08:09.134Z,13.02
2019-05-11T11:10:37.848Z,13.22
2019-05-11T11:13:05.083Z,13.52
2019-05-11T11:15:32.221Z,13.73
2019-05-11T11:17:59.684Z,14.71
2019-05-11T11:20:28.037Z,14.47
2019-05-11T11:23:05.714Z,14.77
2019-05-11T11:25:40.322Z,14.78
2019-05-11T11:28:08.455Z,14.55
2019-05-11T11:30:37.844Z,14.66
2019-05-11T11:33:04.833Z,15.29
2019-05-11T11:35:31.991Z,14.51
2019-05-11T11:38:00.010Z,14.49
2019-05-11T11:40:28.152Z,14.38
2019-05-11T11:42:58.267Z,13.89
2019-05-11T11:45:25.006Z,13.77
2019-05-11T11:47:52.229Z,13.95
2019-05-11T11:50:19.208Z,13.65
2019-05-11T11:52:47.712Z,13.70
2019-05-11T11:55:14.934Z,13.63
2019-05-11T11:57:43.830Z,14.16
2019-05-11T12:00:11.151Z,13.93
2019-05-11T12:02:38.950Z,13.82
2019-05-11T12:05:08.617Z,14.59
2019-05-11T12:07:35.286Z,14.26
2019-05-11T12:10:02.443Z,14.32
2019-05-11T12:12:29.893Z,14.25
2019-05-11T12:14:58.439Z,14.13
2019-05-11T12:17:25.838Z,14.02
2019-05-11T12:19:52.907Z,13.91
2019-05-11T12:22:19.929Z,13.87
2019-05-11T12:24:48.191Z,13.75
2019-05-11T12:27:18.105Z,13.59
2019-05-11T12:29:45.121Z,13.38
2019-05-11T12:32:18.597Z,13.23
2019-05-11T12:34:48.057Z,13.56
2019-05-11T12:37:14.669Z,13.29
2019-05-11T12:39:42.886Z,13.77
2019-05-11T12:42:09.940Z,13.33
2019-05-11T12:44:38.725Z,13.28
2019-05-11T12:47:19.160Z,13.06
2019-05-11T12:49:35.076Z,12.70
2019-05-11T12:52:02.123Z,12.69
2019-05-11T12:54:29.554Z,12.84
2019-05-11T12:56:57.944Z,12.75
2019-05-11T12:59:27.600Z,12.39
2019-05-11T13:01:54.462Z,12.37
2019-05-11T13:04:21.665Z,12.10
2019-05-11T13:06:49.119Z,12.05
2019-05-11T13:09:18.350Z,12.33
2019-05-11T13:11:48.024Z,12.49
2019-05-11T13:14:15.738Z,12.46
2019-05-11T13:16:42.826Z,13.17
2019-05-11T13:19:10.294Z,12.98
2019-05-11T13:21:38.346Z,13.19
2019-05-11T13:24:08.159Z,12.99
2019-05-11T13:26:34.664Z,13.21
2019-05-11T13:29:01.785Z,13.34
2019-05-11T13:31:28.986Z,13.65
2019-05-11T13:33:58.364Z,13.68
2019-05-11T13:36:24.946Z,13.29
2019-05-11T13:38:51.999Z,12.99
2019-05-11T13:41:20.261Z,13.15
2019-05-11T13:43:48.965Z,13.39
2019-05-11T13:46:18.024Z,13.33
2019-05-11T13:48:47.535Z,13.05
2019-05-11T13:51:15.499Z,13.66
2019-05-11T13:53:42.614Z,13.39
2019-05-11T13:56:09.671Z,13.53
2019-05-11T13:58:38.129Z,13.75
2019-05-11T14:01:07.869Z,13.70
2019-05-11T14:03:34.263Z,14.13
2019-05-11T14:06:01.274Z,13.77
2019-05-11T14:08:30.367Z,13.95
2019-05-11T14:10:59.159Z,14.46
2019-05-11T14:13:28.030Z,14.67
2019-05-11T14:15:55.150Z,14.13
2019-05-11T14:18:22.535Z,14.54
2019-05-11T14:20:49.532Z,14.98
2019-05-11T14:23:18.263Z,14.17
2019-05-11T14:25:45.564Z,14.38
2019-05-11T14:28:12.608Z,15.89
2019-05-11T14:30:39.702Z,15.79
2019-05-11T14:33:08.695Z,16.10
2019-05-11T14:35:35.751Z,17.02
2019-05-11T14:38:03.162Z,17.54
2019-05-11T14:40:32.514Z,17.08
2019-05-11T14:42:59.887Z,16.28
2019-05-11T14:45:28.814Z,17.53
2019-05-11T14:47:58.086Z,18.19
2019-05-11T14:50:25.136Z,17.30
2019-05-11T14:52:52.591Z,16.97
2019-05-11T14:55:20.288Z,16.60
2019-05-11T14:57:48.622Z,16.22
2019-05-11T15:00:18.501Z,16.62
2019-05-11T15:02:48.602Z,15.50
2019-05-11T15:05:19.506Z,14.83
2019-05-11T15:07:47.977Z,14.89
2019-05-11T15:10:18.524Z,14.96
2019-05-11T15:12:45.063Z,14.17
2019-05-11T15:15:12.903Z,14.15
2019-05-11T15:17:39.907Z,14.25
2019-05-11T15:20:08.298Z,14.44
2019-05-11T15:22:37.358Z,14.30
2019-05-11T15:25:08.036Z,14.98
2019-05-11T15:27:35.347Z,15.35
2019-05-11T15:30:02.470Z,15.41
2019-05-11T15:32:29.508Z,15.53
2019-05-11T15:34:57.816Z,15.97
2019-05-11T15:37:24.995Z,15.70
2019-05-11T15:39:55.298Z,15.67
2019-05-11T15:42:22.439Z,15.38
2019-05-11T15:44:49.905Z,15.01
2019-05-11T15:47:16.945Z,15.12
2019-05-11T15:49:43.968Z,14.67
2019-05-11T15:52:11.453Z,15.03
2019-05-11T15:54:38.640Z,15.31
2019-05-11T15:57:05.776Z,15.21
2019-05-11T15:59:32.804Z,14.99
2019-05-11T16:02:01.222Z,14.50
2019-05-11T16:04:28.247Z,14.63
2019-05-11T16:06:57.593Z,14.93
2019-05-11T16:09:24.663Z,15.14
2019-05-11T16:11:51.676Z,15.03
2019-05-11T16:14:18.738Z,15.42
2019-05-11T16:16:47.926Z,15.25
2019-05-11T16:19:15.444Z,15.39
2019-05-11T16:21:43.132Z,15.31
2019-05-11T16:24:10.558Z,15.19
2019-05-11T16:26:37.548Z,15.04
2019-05-11T16:29:11.450Z,14.98
2019-05-11T16:31:38.016Z,15.34
2019-05-11T16:34:05.152Z,15.36
2019-05-11T16:36:32.172Z,15.36
2019-05-11T16:38:59.356Z,15.24
2019-05-11T16:41:29.142Z,14.78
2019-05-11T16:43:58.368Z,14.68
2019-05-11T16:46:30.841Z,14.82
2019-05-11T16:48:58.712Z,14.76
2019-05-11T16:51:28.224Z,14.63
2019-05-11T16:53:54.881Z,14.83
2019-05-11T16:56:23.849Z,14.61
2019-05-11T16:58:54.264Z,14.31
2019-05-11T17:01:21.044Z,14.22
2019-05-11T17:03:48.316Z,14.28
2019-05-11T17:06:16.060Z,13.92
2019-05-11T17:08:43.088Z,13.95
2019-05-11T17:11:10.310Z,13.85
2019-05-11T17:13:38.131Z,13.82
2019-05-11T17:16:05.208Z,14.03
2019-05-11T17:18:32.272Z,13.89
2019-05-11T17:20:59.464Z,13.98
2019-05-11T17:23:30.894Z,13.99
2019-05-11T17:25:57.867Z,13.91
2019-05-11T17:28:24.965Z,14.00
2019-05-11T17:30:55.238Z,13.98
2019-05-11T17:33:22.645Z,13.98
2019-05-11T17:35:52.138Z,13.97
2019-05-11T17:38:19.135Z,13.98
2019-05-11T17:40:48.267Z,13.99
2019-05-11T17:43:17.971Z,14.10
2019-05-11T17:45:44.744Z,14.04
2019-05-11T17:48:12.901Z,13.73
2019-05-11T17:50:40.041Z,13.90
2019-05-11T17:53:09.441Z,13.95
2019-05-11T17:55:38.456Z,13.87
2019-05-11T17:58:05.984Z,13.84
2019-05-11T18:00:33.019Z,13.62
2019-05-11T18:03:00.060Z,13.62
2019-05-11T18:05:27.073Z,13.54
2019-05-11T18:07:54.596Z,13.49
2019-05-11T18:10:21.617Z,13.42
2019-05-11T18:12:48.980Z,13.29
2019-05-11T18:15:18.578Z,13.41
2019-05-11T18:17:48.149Z,13.15
2019-05-11T18:20:18.654Z,13.18
2019-05-11T18:22:45.321Z,13.17
2019-05-11T18:25:14.114Z,13.10
2019-05-11T18:27:41.562Z,12.96
2019-05-11T18:30:10.281Z,12.69
2019-05-11T18:32:39.607Z,12.84
2019-05-11T18:35:08.386Z,12.79
2019-05-11T18:37:38.695Z,12.66
2019-05-11T18:40:06.107Z,12.42
2019-05-11T18:42:33.142Z,12.51
2019-05-11T18:45:00.322Z,12.51
2019-05-11T18:47:29.806Z,12.36
2019-05-11T18:49:58.791Z,12.32
2019-05-11T18:52:25.857Z,12.32
2019-05-11T18:54:52.853Z,12.21
2019-05-11T18:57:20.211Z,12.02
2019-05-11T18:59:48.406Z,11.97
2019-05-11T19:02:15.586Z,11.96
2019-05-11T19:04:44.532Z,11.89
2019-05-11T19:07:16.828Z,11.78
2019-05-11T19:09:40.886Z,11.59
2019-05-11T19:12:10.718Z,11.64
2019-05-11T19:14:38.562Z,11.54
2019-05-11T19:17:07.722Z,11.60
2019-05-11T19:19:35.317Z,11.43
2019-05-11T19:22:04.154Z,11.34
2019-05-11T19:24:31.181Z,11.35
2019-05-11T19:26:58.816Z,11.36
2019-05-11T19:29:28.311Z,11.19
2019-05-11T19:31:57.933Z,11.10
2019-05-11T19:34:24.805Z,10.98
2019-05-11T19:36:51.925Z,11.01
2019-05-11T19:39:19.478Z,10.96
2019-05-11T19:41:47.189Z,10.80
2019-05-11T19:44:14.292Z,10.85
2019-05-11T19:46:41.337Z,10.85
2019-05-11T19:49:08.760Z,10.75
2019-05-11T19:51:42.140Z,10.70
2019-05-11T19:54:08.563Z,10.55
2019-05-11T19:56:37.801Z,10.53
2019-05-11T19:59:04.753Z,10.56
2019-05-11T20:01:31.745Z,10.36
2019-05-11T20:03:58.790Z,10.44
2019-05-11T20:06:28.048Z,10.41
2019-05-11T20:08:55.336Z,10.30
2019-05-11T20:11:22.485Z,10.46
2019-05-11T20:13:49.497Z,10.42
2019-05-11T20:16:18.894Z,10.34
2019-05-11T20:18:46.065Z,10.24
2019-05-11T20:21:18.830Z,10.21
2019-05-11T20:23:42.042Z,10.11
2019-05-11T20:26:09.150Z,9.91
2019-05-11T20:28:37.817Z,9.91
2019-05-11T20:31:07.871Z,9.83
2019-05-11T20:33:35.409Z,9.86
2019-05-11T20:36:02.992Z,9.73
2019-05-11T20:38:30.043Z,9.77
2019-05-11T20:40:57.734Z,9.62
2019-05-11T20:43:25.007Z,9.64
2019-05-11T20:45:52.027Z,9.54
2019-05-11T20:48:19.043Z,9.27
2019-05-11T20:50:48.336Z,9.39
2019-05-11T20:53:17.994Z,9.46
2019-05-11T20:55:44.912Z,9.52
2019-05-11T20:58:15.035Z,9.40
2019-05-11T21:00:42.812Z,9.21
2019-05-11T21:03:09.819Z,9.20
2019-05-11T21:05:37.755Z,9.01
2019-05-11T21:08:08.318Z,9.09
2019-05-11T21:10:35.412Z,8.86
2019-05-11T21:13:03.097Z,8.62
2019-05-11T21:15:30.507Z,8.86
2019-05-11T21:17:58.632Z,8.62
2019-05-11T21:20:25.924Z,8.72
2019-05-11T21:22:52.901Z,8.59
2019-05-11T21:25:20.351Z,8.45
2019-05-11T21:27:48.610Z,8.62
2019-05-11T21:30:18.293Z,8.42
2019-05-11T21:32:45.071Z,8.36
2019-05-11T21:35:12.763Z,8.36
2019-05-11T21:37:39.744Z,8.40
2019-05-11T21:40:09.146Z,8.29
2019-05-11T21:42:39.106Z,8.26
2019-05-11T21:45:09.235Z,8.22
2019-05-11T21:47:38.345Z,8.26
2019-05-11T21:50:05.050Z,8.26
2019-05-11T21:52:32.564Z,8.38
2019-05-11T21:55:02.835Z,8.21
2019-05-11T21:57:30.509Z,8.07
2019-05-11T22:00:00.576Z,8.11
2019-05-11T22:02:28.728Z,8.23
2019-05-11T22:04:58.512Z,7.87
2019-05-11T22:07:27.833Z,7.89
2019-05-11T22:09:54.836Z,7.96
2019-05-11T22:12:22.300Z,7.87
2019-05-11T22:14:49.316Z,7.68
2019-05-11T22:17:18.217Z,7.65
2019-05-11T22:19:47.391Z,7.70
2019-05-11T22:22:22.515Z,7.55
2019-05-11T22:24:43.904Z,7.56
2019-05-11T22:27:10.908Z,7.61
2019-05-11T22:29:38.004Z,7.54
2019-05-11T22:32:05.765Z,7.39
2019-05-11T22:34:32.816Z,7.48
2019-05-11T22:36:59.808Z,7.44
2019-05-11T22:39:26.815Z,7.43
2019-05-11T22:41:54.364Z,7.38
2019-05-11T22:44:21.520Z,7.40
2019-05-11T22:46:48.704Z,7.48
2019-05-11T22:49:17.769Z,7.22
2019-05-11T22:51:45.105Z,7.13
2019-05-11T22:54:12.153Z,7.15
2019-05-11T22:56:39.337Z,7.29
2019-05-11T22:59:08.267Z,7.31
2019-05-11T23:01:37.893Z,7.12
2019-05-11T23:04:06.197Z,7.12
2019-05-11T23:06:33.208Z,7.19
2019-05-11T23:09:00.205Z,7.10
2019-05-11T23:11:28.511Z,7.09
2019-05-11T23:13:55.953Z,7.11
2019-05-11T23:16:22.997Z,7.01
2019-05-11T23:18:50.000Z,6.94
2019-05-11T23:21:17.105Z,6.96
2019-05-11T23:23:44.243Z,6.97
2019-05-11T23:26:11.904Z,6.80
2019-05-11T23:28:38.913Z,6.80
2019-05-11T23:31:05.933Z,6.79
2019-05-11T23:33:32.970Z,6.78
2019-05-11T23:36:00.397Z,6.68
2019-05-11T23:38:28.204Z,6.76
2019-05-11T23:40:55.417Z,6.67
2019-05-11T23:43:22.477Z,6.52
2019-05-11T23:45:49.619Z,6.56
2019-05-11T23:48:17.069Z,6.39
2019-05-11T23:50:46.169Z,6.44
2019-05-11T23:53:13.727Z,6.68
2019-05-11T23:55:40.786Z,6.84
2019-05-11T23:58:08.715Z,6.97
